Time;durP1;ratioP1;P1;durP2;ratioP2;P2;SDS_P1;SDS_P2;PMS_P1;PMS_P2;Temp;Humidity;BMP_temperature;BMP_pressure;BME280_temperature;BME280_humidity;BME280_pressure;Samples;Min_cycle;Max_cycle;Signal;HPM_P1;HPM_P2
2023/10/03 00:00:56;;;;;;;27.92;15.57;;;;;;;15.63;100.00;100919.59;5053583;28;20049;-54
2023/10/03 00:03:25;;;;;;;26.60;14.98;;;;;;;15.61;100.00;100913.59;5053685;28;20053;-55
2023/10/03 00:05:54;;;;;;;31.30;16.40;;;;;;;15.62;100.00;100917.91;5052208;28;20057;-56
2023/10/03 00:08:25;;;;;;;31.23;16.00;;;;;;;15.62;100.00;100911.78;5053355;28;20144;-55
2023/10/03 00:10:54;;;;;;;33.67;17.23;;;;;;;15.64;100.00;100904.53;5053782;28;20831;-55
2023/10/03 00:13:24;;;;;;;29.08;14.63;;;;;;;15.65;100.00;100901.75;5053414;28;20463;-56
2023/10/03 00:15:53;;;;;;;29.63;16.10;;;;;;;15.65;100.00;100901.75;5053632;28;20048;-54
2023/10/03 00:18:22;;;;;;;30.92;15.07;;;;;;;15.69;100.00;100889.91;5053338;28;20522;-56
2023/10/03 00:20:50;;;;;;;28.60;16.35;;;;;;;15.70;100.00;100894.22;5053219;28;20399;-56
2023/10/03 00:23:19;;;;;;;27.90;15.18;;;;;;;15.69;100.00;100884.63;5053261;28;20099;-54
2023/10/03 00:25:47;;;;;;;31.50;15.32;;;;;;;15.69;100.00;100881.09;5051716;28;20081;-55
2023/10/03 00:28:17;;;;;;;28.30;14.23;;;;;;;15.68;100.00;100861.72;5051254;28;20052;-53
2023/10/03 00:30:46;;;;;;;29.00;14.30;;;;;;;15.69;100.00;100858.09;5048757;28;20059;-57
2023/10/03 00:33:17;;;;;;;29.90;14.88;;;;;;;15.71;100.00;100860.63;5049809;28;20041;-55
2023/10/03 00:35:47;;;;;;;31.88;14.82;;;;;;;15.68;100.00;100853.75;5052974;28;20477;-54
2023/10/03 00:38:15;;;;;;;31.17;15.60;;;;;;;15.71;100.00;100850.00;5052897;28;20044;-56
2023/10/03 00:40:50;;;;;;;29.52;15.30;;;;;;;15.66;100.00;100861.00;5052980;28;20041;-55
2023/10/03 00:43:20;;;;;;;28.92;15.18;;;;;;;15.68;100.00;100837.88;5052902;28;20045;-55
2023/10/03 00:45:49;;;;;;;28.85;15.55;;;;;;;15.71;100.00;100847.38;5052634;28;20102;-55
2023/10/03 00:48:18;;;;;;;32.15;15.20;;;;;;;15.68;100.00;100842.34;5051441;28;20052;-55
2023/10/03 00:50:48;;;;;;;27.70;14.10;;;;;;;15.68;100.00;100832.56;5051237;28;20136;-54
2023/10/03 00:53:16;;;;;;;27.58;14.90;;;;;;;15.75;100.00;100821.41;5052557;28;20455;-53
2023/10/03 00:55:47;;;;;;;29.13;15.20;;;;;;;15.75;100.00;100821.41;5051650;28;20615;-56
2023/10/03 00:58:28;;;;;;;31.70;14.60;;;;;;;15.75;100.00;100822.25;5052512;28;20052;-56
2023/10/03 01:00:58;;;;;;;30.75;13.35;;;;;;;15.74;100.00;100809.16;5052450;28;20053;-55
2023/10/03 01:03:28;;;;;;;30.88;15.10;;;;;;;15.78;100.00;100802.59;5052584;28;20055;-55
2023/10/03 01:05:59;;;;;;;32.65;13.80;;;;;;;15.86;100.00;100792.19;5052513;28;20049;-56
2023/10/03 01:08:29;;;;;;;29.23;14.13;;;;;;;15.87;100.00;100796.53;5052282;28;20052;-53
2023/10/03 01:11:00;;;;;;;29.58;13.98;;;;;;;15.91;100.00;100792.63;5052129;28;20550;-54
2023/10/03 01:13:29;;;;;;;32.63;14.95;;;;;;;15.99;100.00;100771.56;5052210;28;20463;-54
2023/10/03 01:16:03;;;;;;;29.20;13.80;;;;;;;15.96;100.00;100763.84;5052112;28;20072;-54
2023/10/03 01:18:31;;;;;;;32.17;15.07;;;;;;;15.95;100.00;100756.03;5050716;28;20139;-56
2023/10/03 01:21:04;;;;;;;31.38;14.35;;;;;;;15.97;100.00;100754.09;5052063;28;20037;-56
2023/10/03 01:23:35;;;;;;;27.60;13.90;;;;;;;15.92;100.00;100759.81;5052281;28;20109;-56
2023/10/03 01:26:04;;;;;;;31.10;14.50;;;;;;;15.91;100.00;100766.09;5050660;28;20118;-56
2023/10/03 01:28:32;;;;;;;31.63;15.00;;;;;;;15.88;100.00;100751.31;5050789;28;20056;-55
2023/10/03 01:31:00;;;;;;;30.50;14.52;;;;;;;15.91;100.00;100744.88;5048917;28;20041;-54
2023/10/03 01:33:32;;;;;;;30.77;14.23;;;;;;;15.97;100.00;100735.53;5049713;28;20152;-54
2023/10/03 01:36:01;;;;;;;33.22;15.13;;;;;;;15.99;100.00;100728.28;5051516;28;20076;-55
2023/10/03 01:38:29;;;;;;;31.60;13.82;;;;;;;16.03;100.00;100725.22;5048975;28;20049;-55
2023/10/03 01:41:00;;;;;;;33.03;15.35;;;;;;;16.12;100.00;100712.94;5048317;28;20128;-54
2023/10/03 01:43:29;;;;;;;30.85;14.75;;;;;;;16.06;100.00;100708.19;5051756;28;20472;-54
2023/10/03 01:45:57;;;;;;;29.95;14.57;;;;;;;16.03;100.00;100706.66;5051637;28;20121;-55
2023/10/03 01:48:26;;;;;;;31.45;14.20;;;;;;;16.02;100.00;100696.16;5050298;28;20049;-53
2023/10/03 01:50:56;;;;;;;30.45;14.23;;;;;;;16.00;100.00;100693.66;5050662;28;20132;-54
2023/10/03 01:53:25;;;;;;;31.95;14.73;;;;;;;15.97;100.00;100688.63;5048441;28;20099;-56
2023/10/03 01:55:53;;;;;;;30.23;15.15;;;;;;;16.00;100.00;100688.34;5049725;28;20040;-55
2023/10/03 01:58:24;;;;;;;32.35;14.43;;;;;;;15.99;100.00;100691.13;5051502;28;20106;-55
2023/10/03 02:00:52;;;;;;;31.48;14.23;;;;;;;15.98;100.00;100686.81;5051459;28;20478;-55
2023/10/03 02:03:22;;;;;;;28.52;14.32;;;;;;;15.98;100.00;100678.84;5051582;28;20106;-55
2023/10/03 02:05:51;;;;;;;30.00;14.55;;;;;;;15.95;100.00;100676.47;5051363;28;20091;-55
2023/10/03 02:08:20;;;;;;;30.13;14.60;;;;;;;15.94;100.00;100674.81;5051371;28;20052;-54
2023/10/03 02:10:49;;;;;;;29.80;15.13;;;;;;;15.93;100.00;100655.41;5051261;28;20128;-54
2023/10/03 02:13:21;;;;;;;31.33;14.00;;;;;;;15.98;100.00;100645.22;5051474;28;20114;-56
2023/10/03 02:15:52;;;;;;;31.77;14.38;;;;;;;16.00;100.00;100632.66;5051444;28;20037;-54
2023/10/03 02:18:21;;;;;;;30.58;13.85;;;;;;;15.97;100.00;100624.97;5051773;28;20148;-55
2023/10/03 02:20:52;;;;;;;27.63;13.82;;;;;;;15.97;100.00;100638.25;5051388;28;20072;-55
2023/10/03 02:23:23;;;;;;;31.58;15.55;;;;;;;15.94;100.00;100640.31;5049692;28;20045;-55
2023/10/03 02:25:56;;;;;;;28.48;13.15;;;;;;;15.92;100.00;100644.94;5047147;28;20522;-55
2023/10/03 02:28:26;;;;;;;29.75;14.45;;;;;;;15.95;100.00;100642.00;5051087;28;20408;-54
2023/10/03 02:30:57;;;;;;;28.90;13.57;;;;;;;15.96;100.00;100638.38;5051070;28;20106;-56
2023/10/03 02:33:26;;;;;;;29.45;14.05;;;;;;;15.96;100.00;100633.09;5051359;28;20067;-55
2023/10/03 02:35:55;;;;;;;28.60;13.48;;;;;;;15.93;100.00;100628.88;5051145;28;20056;-55
2023/10/03 02:38:29;;;;;;;30.38;14.95;;;;;;;15.94;100.00;100619.97;5051165;28;20095;-54
2023/10/03 02:40:59;;;;;;;26.58;13.52;;;;;;;15.96;100.00;100617.16;5051097;28;20402;-56
2023/10/03 02:43:29;;;;;;;31.55;14.65;;;;;;;15.96;100.00;100618.00;5051058;28;20056;-57
2023/10/03 02:45:59;;;;;;;27.30;13.48;;;;;;;15.96;100.00;100625.94;5050953;28;20496;-55
2023/10/03 02:48:28;;;;;;;30.45;13.95;;;;;;;16.05;100.00;100609.19;5048862;28;20053;-55
2023/10/03 02:50:57;;;;;;;30.02;13.75;;;;;;;15.99;100.00;100611.56;5047481;28;20041;-55
2023/10/03 02:53:26;;;;;;;31.70;14.30;;;;;;;16.13;100.00;100602.34;5047545;28;20078;-55
2023/10/03 02:55:55;;;;;;;29.85;13.70;;;;;;;16.07;100.00;100585.19;5047756;28;20136;-56
2023/10/03 02:58:23;;;;;;;28.67;13.57;;;;;;;16.02;100.00;100601.53;5048899;28;20444;-55
2023/10/03 03:00:54;;;;;;;29.85;13.85;;;;;;;16.03;100.00;100616.47;5047626;28;20120;-56
2023/10/03 03:03:29;;;;;;;27.07;13.40;;;;;;;16.04;100.00;100622.59;5049754;28;20045;-56
2023/10/03 03:06:02;;;;;;;29.38;13.68;;;;;;;16.23;100.00;100625.22;5049628;28;20047;-54
2023/10/03 03:08:31;;;;;;;28.33;12.30;;;;;;;16.29;100.00;100623.84;5047303;28;20072;-56
2023/10/03 03:11:00;;;;;;;28.17;13.43;;;;;;;16.36;100.00;100618.78;5046541;28;20401;-55
2023/10/03 03:13:31;;;;;;;30.00;13.63;;;;;;;16.36;100.00;100618.78;5047299;28;20049;-56
2023/10/03 03:16:03;;;;;;;29.98;13.07;;;;;;;16.50;100.00;100620.97;5047469;28;20124;-55
2023/10/03 03:18:39;;;;;;;30.73;13.70;;;;;;;16.52;100.00;100618.19;5051656;28;20041;-53
2023/10/03 03:21:09;;;;;;;28.30;12.73;;;;;;;16.60;100.00;100612.16;5051171;28;20043;-54
2023/10/03 03:23:39;;;;;;;29.50;12.73;;;;;;;16.65;100.00;100616.06;5051496;28;20067;-56
2023/10/03 03:26:20;;;;;;;29.92;12.82;;;;;;;16.78;100.00;100610.41;5053643;28;20053;-53
2023/10/03 03:28:50;;;;;;;27.45;12.27;;;;;;;17.02;100.00;100596.63;5051069;28;20059;-54
2023/10/03 03:31:22;;;;;;;28.40;12.80;;;;;;;16.99;100.00;100598.75;5051033;28;20045;-52
2023/10/03 03:33:54;;;;;;;25.20;11.82;;;;;;;16.91;100.00;100596.84;5050871;28;20052;-53
2023/10/03 03:36:29;;;;;;;27.38;12.45;;;;;;;16.92;100.00;100593.19;5049171;28;20132;-54
2023/10/03 03:39:03;;;;;;;29.50;12.93;;;;;;;16.92;100.00;100590.53;5050714;28;20448;-50
2023/10/03 03:41:32;;;;;;;27.85;12.75;;;;;;;16.99;100.00;100604.06;5053928;28;20148;-54
2023/10/03 03:44:01;;;;;;;25.48;11.88;;;;;;;17.00;100.00;100590.63;5052457;28;20049;-52
2023/10/03 03:46:30;;;;;;;29.60;13.90;;;;;;;16.98;100.00;100592.59;5049605;28;20057;-54
2023/10/03 03:48:59;;;;;;;28.92;13.43;;;;;;;17.04;100.00;100596.47;5052657;28;20049;-53
2023/10/03 03:51:28;;;;;;;27.63;12.70;;;;;;;17.02;100.00;100587.84;5053616;28;20103;-53
2023/10/03 03:53:59;;;;;;;27.10;12.25;;;;;;;17.00;100.00;100581.81;5053532;28;20548;-53
2023/10/03 03:56:28;;;;;;;28.77;12.07;;;;;;;16.98;100.00;100591.78;5052440;28;20053;-53
2023/10/03 03:58:56;;;;;;;29.73;12.38;;;;;;;16.96;100.00;100578.63;5051473;28;20060;-49
2023/10/03 04:01:24;;;;;;;26.77;11.93;;;;;;;17.00;100.00;100581.81;5050242;28;20037;-54
2023/10/03 04:03:54;;;;;;;26.05;11.65;;;;;;;17.01;100.00;100578.19;5052599;28;20520;-51
2023/10/03 04:06:24;;;;;;;26.73;13.05;;;;;;;17.09;100.00;100583.59;5053487;28;20451;-51
2023/10/03 04:08:52;;;;;;;24.13;11.32;;;;;;;17.10;100.00;100579.09;5053128;28;20084;-54
2023/10/03 04:11:36;;;;;;;27.48;11.70;;;;;;;17.19;100.00;100591.50;5051150;28;20084;-54
2023/10/03 04:14:07;;;;;;;24.85;10.57;;;;;;;17.14;100.00;100591.09;5050265;28;20045;-54
2023/10/03 04:16:39;;;;;;;23.83;10.63;;;;;;;17.18;100.00;100603.13;5050180;28;20055;-53
2023/10/03 04:19:10;;;;;;;25.00;10.43;;;;;;;17.33;100.00;100601.63;5050583;28;20041;-53
2023/10/03 04:21:41;;;;;;;22.30;10.02;;;;;;;17.29;100.00;100604.72;5050444;28;20045;-53
2023/10/03 04:24:12;;;;;;;22.40;10.05;;;;;;;17.29;100.00;100613.53;5050177;28;20116;-53
2023/10/03 04:26:42;;;;;;;22.27;10.10;;;;;;;17.36;100.00;100606.63;5048907;28;20086;-51
2023/10/03 04:29:13;;;;;;;24.05;10.95;;;;;;;17.35;100.00;100604.97;5049234;28;20076;-55
2023/10/03 04:31:42;;;;;;;24.83;10.15;;;;;;;17.32;100.00;100601.78;5050951;28;20149;-55
2023/10/03 04:34:15;;;;;;;22.23;9.98;;;;;;;17.34;100.00;100616.59;5052966;28;20045;-50
2023/10/03 04:36:47;;;;;;;24.08;10.27;;;;;;;17.37;100.00;100629.56;5051806;28;20514;-51
2023/10/03 04:39:15;;;;;;;25.27;10.75;;;;;;;17.43;100.00;100622.00;5052818;28;20053;-54
2023/10/03 04:41:45;;;;;;;21.67;9.73;;;;;;;17.52;100.00;100634.38;5048860;28;20136;-52
2023/10/03 04:44:15;;;;;;;21.85;10.35;;;;;;;17.50;100.00;100621.22;5049170;28;20045;-54
2023/10/03 04:46:45;;;;;;;19.38;9.38;;;;;;;17.57;100.00;100630.28;5049996;28;20135;-53
2023/10/03 04:49:15;;;;;;;19.85;9.75;;;;;;;17.54;100.00;100629.75;5051161;28;20567;-52
2023/10/03 04:51:47;;;;;;;21.83;9.32;;;;;;;17.56;100.00;100633.06;5051166;28;20052;-53
2023/10/03 04:54:17;;;;;;;19.13;9.38;;;;;;;17.60;100.00;100629.16;5052372;28;20504;-52
2023/10/03 04:56:48;;;;;;;19.40;9.15;;;;;;;17.52;100.00;100639.69;5052445;28;20451;-53
2023/10/03 04:59:19;;;;;;;20.02;8.98;;;;;;;17.49;100.00;100640.00;5052453;28;20048;-54
2023/10/03 05:01:47;;;;;;;18.48;8.45;;;;;;;17.46;100.00;100648.28;5052577;28;20045;-54
2023/10/03 05:04:15;;;;;;;17.30;7.47;;;;;;;17.46;100.00;100638.47;5052335;28;20522;-53
2023/10/03 05:06:47;;;;;;;17.73;7.75;;;;;;;17.44;100.00;100648.44;5049076;28;20053;-54
2023/10/03 05:09:19;;;;;;;17.42;7.07;;;;;;;17.44;100.00;100650.22;5050447;28;20052;-54
2023/10/03 05:11:50;;;;;;;14.23;6.93;;;;;;;17.38;100.00;100657.84;5052147;28;20063;-55
2023/10/03 05:14:18;;;;;;;14.27;6.40;;;;;;;17.40;100.00;100653.19;5051885;28;20554;-53
2023/10/03 05:16:50;;;;;;;15.00;5.82;;;;;;;17.46;100.00;100659.72;5051623;28;20092;-54
2023/10/03 05:19:21;;;;;;;14.00;5.53;;;;;;;17.43;100.00;100657.38;5048221;28;20048;-54
2023/10/03 05:21:50;;;;;;;13.10;5.18;;;;;;;17.45;100.00;100662.53;5049717;28;20037;-54
2023/10/03 05:24:19;;;;;;;10.23;4.50;;;;;;;17.47;100.00;100663.25;5051958;28;20041;-53
2023/10/03 05:26:48;;;;;;;13.07;5.00;;;;;;;17.45;100.00;100651.91;5051859;28;20045;-53
2023/10/03 05:29:16;;;;;;;13.88;5.30;;;;;;;17.43;100.00;100654.72;5051966;28;20045;-54
2023/10/03 05:31:44;;;;;;;13.63;5.20;;;;;;;17.42;100.00;100662.84;5049198;28;20536;-55
2023/10/03 05:34:12;;;;;;;15.38;5.25;;;;;;;17.46;100.00;100669.53;5048696;28;20125;-54
2023/10/03 05:36:41;;;;;;;12.95;5.13;;;;;;;17.40;100.00;100677.13;5048319;28;20664;-54
2023/10/03 05:39:11;;;;;;;13.30;5.40;;;;;;;17.43;100.00;100701.75;5049134;28;20047;-55
2023/10/03 05:41:42;;;;;;;13.75;4.60;;;;;;;17.44;100.00;100700.72;5050333;28;20155;-56
2023/10/03 05:44:12;;;;;;;11.30;4.78;;;;;;;17.39;100.00;100706.50;5051666;28;20043;-53
2023/10/03 05:46:40;;;;;;;10.95;5.13;;;;;;;17.40;100.00;100700.22;5051549;28;20048;-55
2023/10/03 05:49:10;;;;;;;12.57;4.93;;;;;;;17.44;100.00;100698.94;5051464;28;20057;-53
2023/10/03 05:51:39;;;;;;;10.40;4.63;;;;;;;17.50;100.00;100705.47;5049600;28;20139;-53
2023/10/03 05:54:08;;;;;;;12.75;4.75;;;;;;;17.44;100.00;100708.72;5048565;28;20114;-54
2023/10/03 05:56:37;;;;;;;13.38;5.18;;;;;;;17.40;100.00;100705.53;5045089;28;20091;-55
2023/10/03 05:59:07;;;;;;;10.43;4.43;;;;;;;17.36;100.00;100712.94;5048940;28;20055;-54
2023/10/03 06:01:35;;;;;;;13.10;5.22;;;;;;;17.39;100.00;100709.97;5051412;28;20080;-54
2023/10/03 06:04:03;;;;;;;9.52;4.32;;;;;;;17.44;100.00;100722.00;5051623;28;20461;-55
2023/10/03 06:06:33;;;;;;;12.65;4.85;;;;;;;17.40;100.00;100732.94;5051534;28;20538;-53
2023/10/03 06:09:02;;;;;;;13.00;5.10;;;;;;;17.39;100.00;100730.44;5051454;28;20044;-54
2023/10/03 06:11:31;;;;;;;11.98;4.63;;;;;;;17.48;100.00;100718.91;5051380;28;20053;-53
2023/10/03 06:13:59;;;;;;;11.70;4.28;;;;;;;17.45;100.00;100726.34;5051136;28;20059;-53
2023/10/03 06:16:29;;;;;;;10.30;4.22;;;;;;;17.50;100.00;100740.03;5051321;28;20064;-53
2023/10/03 06:18:57;;;;;;;11.25;4.88;;;;;;;17.45;100.00;100736.97;5051192;28;20059;-53
2023/10/03 06:21:25;;;;;;;11.43;5.18;;;;;;;17.47;100.00;100735.03;5050846;28;20124;-54
2023/10/03 06:23:53;;;;;;;10.32;4.70;;;;;;;17.51;100.00;100721.28;5051003;28;20045;-53
2023/10/03 06:26:22;;;;;;;12.85;4.88;;;;;;;17.52;100.00;100735.38;5051121;28;20055;-55
2023/10/03 06:28:50;;;;;;;13.68;5.22;;;;;;;17.51;100.00;100723.94;5050990;28;20064;-54
2023/10/03 06:31:18;;;;;;;10.40;5.35;;;;;;;17.52;100.00;100738.03;5051142;28;20048;-53
2023/10/03 06:33:49;;;;;;;13.88;5.20;;;;;;;17.53;100.00;100735.25;5048541;28;20059;-54
2023/10/03 06:36:18;;;;;;;10.02;4.70;;;;;;;17.60;100.00;100740.84;5047903;28;20049;-53
2023/10/03 06:38:46;;;;;;;12.32;5.00;;;;;;;17.56;100.00;100745.59;5051225;28;20053;-53
2023/10/03 06:41:19;;;;;;;11.63;4.82;;;;;;;17.57;100.00;100733.13;5049436;28;20049;-54
2023/10/03 06:43:47;;;;;;;11.95;5.35;;;;;;;17.64;100.00;100733.38;5048260;28;20167;-55
2023/10/03 06:46:15;;;;;;;19.95;5.45;;;;;;;17.63;100.00;100739.66;5050452;28;20056;-53
2023/10/03 06:48:46;;;;;;;12.27;5.47;;;;;;;17.64;100.00;100736.88;5048556;28;20045;-54
2023/10/03 06:51:16;;;;;;;11.40;5.20;;;;;;;17.66;100.00;100744.72;5049220;28;20772;-55
2023/10/03 06:53:47;;;;;;;10.07;5.18;;;;;;;17.63;100.00;100756.47;5052723;28;20531;-54
2023/10/03 06:56:16;;;;;;;11.02;5.40;;;;;;;17.63;100.00;100758.28;5054789;28;20048;-54
2023/10/03 06:58:44;;;;;;;13.40;5.57;;;;;;;17.65;100.00;100769.63;5052075;28;20530;-52
2023/10/03 07:01:12;;;;;;;8.85;4.80;;;;;;;17.66;100.00;100766.81;5051597;28;20438;-55
2023/10/03 07:03:41;;;;;;;11.27;5.53;;;;;;;17.67;100.00;100765.84;5086732;28;20037;-54
2023/10/03 07:06:09;;;;;;;12.23;5.40;;;;;;;17.69;100.00;100769.16;5054553;28;20667;-54
2023/10/03 07:08:41;;;;;;;13.40;5.38;;;;;;;17.78;100.00;100771.91;5052975;28;20037;-53
2023/10/03 07:11:16;;;;;;;14.87;5.50;;;;;;;17.79;100.00;100781.56;5050090;28;20075;-52
2023/10/03 07:13:44;;;;;;;13.63;4.82;;;;;;;17.85;100.00;100770.34;5051508;28;20072;-55
2023/10/03 07:16:12;;;;;;;13.00;5.60;;;;;;;17.93;100.00;100785.59;5054255;28;20103;-54
2023/10/03 07:18:43;;;;;;;12.80;5.22;;;;;;;17.98;100.00;100794.78;5054357;28;20128;-54
2023/10/03 07:21:11;;;;;;;12.45;5.28;;;;;;;18.04;100.00;100799.53;5054229;28;20049;-53
2023/10/03 07:23:41;;;;;;;10.55;4.88;;;;;;;18.13;100.00;100803.09;5052034;28;20480;-55
2023/10/03 07:26:12;;;;;;;10.45;5.25;;;;;;;18.11;100.00;100797.09;5050264;28;20056;-52
2023/10/03 07:28:41;;;;;;;11.75;5.55;;;;;;;18.07;100.00;100801.88;5053283;28;20041;-53
2023/10/03 07:31:12;;;;;;;14.88;6.05;;;;;;;18.13;100.00;100800.44;5050930;28;20118;-53
2023/10/03 07:33:43;;;;;;;13.13;5.40;;;;;;;18.14;100.00;100798.63;5052766;28;20545;-55
2023/10/03 07:36:13;;;;;;;11.80;5.20;;;;;;;18.12;100.00;100808.56;5054037;28;20123;-54
2023/10/03 07:38:45;;;;;;;10.05;5.20;;;;;;;18.11;100.00;100813.06;5050888;28;20069;-52
2023/10/03 07:41:13;;;;;;;15.73;5.60;;;;;;;18.15;100.00;100814.44;5049553;28;20052;-54
2023/10/03 07:43:42;;;;;;;11.40;5.40;;;;;;;18.22;100.00;100799.53;5050909;28;20118;-54
2023/10/03 07:46:10;;;;;;;9.60;5.03;;;;;;;18.11;100.00;100793.63;5050776;28;20140;-54
2023/10/03 07:48:39;;;;;;;8.10;4.72;;;;;;;18.11;100.00;100809.59;5050803;28;20055;-51
2023/10/03 07:51:07;;;;;;;12.23;5.15;;;;;;;18.04;100.00;100823.47;5051934;28;20135;-53
2023/10/03 07:53:36;;;;;;;11.43;4.80;;;;;;;18.01;100.00;100820.25;5053759;28;20202;-52
2023/10/03 07:56:08;;;;;;;11.02;4.70;;;;;;;17.94;100.00;100817.34;5053452;28;20045;-53
2023/10/03 07:58:37;;;;;;;13.57;4.57;;;;;;;17.91;100.00;100825.59;5053611;28;20049;-54
2023/10/03 08:01:05;;;;;;;14.93;5.78;;;;;;;17.86;100.00;100835.84;5053239;28;20076;-53
2023/10/03 08:03:34;;;;;;;10.10;4.82;;;;;;;17.83;100.00;100825.50;5052929;28;20069;-56
2023/10/03 08:06:03;;;;;;;11.60;4.57;;;;;;;17.82;100.00;100837.13;5053381;28;20044;-54
2023/10/03 08:08:32;;;;;;;11.50;4.32;;;;;;;17.81;100.00;100848.78;5053409;28;20044;-55
2023/10/03 08:11:06;;;;;;;11.88;4.50;;;;;;;17.76;100.00;100870.47;5053343;28;20053;-56
2023/10/03 08:13:39;;;;;;;9.55;4.18;;;;;;;17.71;100.00;100857.63;5053156;28;20044;-55
2023/10/03 08:16:07;;;;;;;9.95;3.72;;;;;;;17.74;100.00;100872.47;5053322;28;20107;-55
2023/10/03 08:18:36;;;;;;;6.85;3.25;;;;;;;17.74;100.00;100883.09;5053273;28;20052;-55
2023/10/03 08:21:04;;;;;;;10.13;2.70;;;;;;;17.73;100.00;100892.88;5052971;28;20127;-54
2023/10/03 08:23:33;;;;;;;11.88;2.78;;;;;;;17.77;100.00;100889.94;5051314;28;20069;-54
2023/10/03 08:26:02;;;;;;;6.60;2.35;;;;;;;17.78;100.00;100889.81;5052604;28;20519;-52
2023/10/03 08:28:31;;;;;;;8.32;2.50;;;;;;;17.78;100.00;100896.94;5052739;28;20498;-55
2023/10/03 08:31:06;;;;;;;9.07;2.92;;;;;;;17.84;100.00;100896.34;5053118;28;20131;-55
2023/10/03 08:33:37;;;;;;;9.45;2.80;;;;;;;17.93;100.00;100910.63;5052957;28;20091;-54
2023/10/03 08:36:14;;;;;;;7.10;2.30;;;;;;;17.95;100.00;100924.63;5052950;28;20140;-54
2023/10/03 08:38:43;;;;;;;9.48;2.78;;;;;;;17.89;100.00;100923.38;5051628;28;20136;-53
2023/10/03 08:41:16;;;;;;;10.95;2.20;;;;;;;17.87;100.00;100925.31;5052773;28;20720;-54
2023/10/03 08:43:53;;;;;;;;;;;;;;;17.86;100.00;100931.63;5053413;28;20515;-52
2023/10/03 08:46:29;;;;;;;8.80;2.15;;;;;;;17.86;100.00;100934.28;5051537;28;19920;-54
2023/10/03 08:49:01;;;;;;;8.07;1.83;;;;;;;17.87;100.00;100947.47;5052622;28;20056;-55
2023/10/03 08:51:32;;;;;;;9.38;1.88;;;;;;;17.83;100.00;100943.41;5049742;28;20099;-53
2023/10/03 08:54:09;;;;;;;7.53;1.67;;;;;;;17.75;100.00;100956.56;5049655;28;20053;-54
2023/10/03 08:56:41;;;;;;;10.45;1.88;;;;;;;17.64;100.00;100965.56;5052456;28;20075;-55
2023/10/03 08:59:09;;;;;;;6.47;2.15;;;;;;;17.47;100.00;100966.28;5052422;28;20044;-55
2023/10/03 09:01:45;;;;;;;7.55;1.98;;;;;;;17.37;100.00;100977.78;5052414;28;20563;-56
2023/10/03 09:04:17;;;;;;;8.88;2.22;;;;;;;17.39;100.00;100985.59;5049144;28;20044;-55
2023/10/03 09:06:46;;;;;;;6.70;2.17;;;;;;;17.31;100.00;100983.63;5049415;28;20045;-56
2023/10/03 09:09:16;;;;;;;7.55;1.80;;;;;;;17.27;100.00;101008.00;5050227;28;20041;-56
2023/10/03 09:11:51;;;;;;;7.97;2.13;;;;;;;17.14;100.00;101008.25;5052286;28;20465;-55
2023/10/03 09:14:20;;;;;;;5.35;1.60;;;;;;;17.04;100.00;101011.75;5051976;28;20055;-55
2023/10/03 09:16:52;;;;;;;4.80;1.42;;;;;;;16.96;100.00;101019.59;5048277;28;20140;-55
2023/10/03 09:19:24;;;;;;;6.53;1.57;;;;;;;16.87;100.00;101025.69;5050237;28;20094;-50
2023/10/03 09:21:52;;;;;;;6.35;1.50;;;;;;;16.82;100.00;101026.06;5052245;28;20041;-53
2023/10/03 09:24:21;;;;;;;5.20;1.60;;;;;;;16.86;100.00;101024.00;5051949;28;20037;-51
2023/10/03 09:26:54;;;;;;;5.55;1.58;;;;;;;16.74;100.00;101044.50;5052177;28;20045;-52
2023/10/03 09:29:32;;;;;;;5.20;1.23;;;;;;;16.60;100.00;101053.69;5050613;28;20084;-52
2023/10/03 09:32:12;;;;;;;5.00;1.40;;;;;;;16.68;100.00;101053.84;5052171;28;20049;-51
2023/10/03 09:34:43;;;;;;;6.63;1.45;;;;;;;16.69;100.00;101065.34;5051737;28;20041;-50
2023/10/03 09:37:11;;;;;;;8.32;1.42;;;;;;;16.65;100.00;101069.22;5051709;28;20549;-52
2023/10/03 09:39:48;;;;;;;4.35;1.30;;;;;;;16.62;100.00;101065.03;5051362;28;20049;-52
2023/10/03 09:42:23;;;;;;;5.80;1.48;;;;;;;16.77;100.00;101062.84;5047360;28;20052;-54
2023/10/03 09:44:57;;;;;;;5.75;1.27;;;;;;;16.93;100.00;101080.09;5050228;28;20116;-55
2023/10/03 09:47:31;;;;;;;5.03;1.27;;;;;;;17.10;100.00;101076.78;5049238;28;20071;-55
2023/10/03 09:50:09;;;;;;;4.70;1.20;;;;;;;17.20;100.00;101077.63;5048952;28;20087;-51
2023/10/03 09:52:38;;;;;;;4.70;1.30;;;;;;;17.28;100.00;101084.09;5048834;28;20079;-54
2023/10/03 09:55:21;;;;;;;5.15;1.15;;;;;;;17.26;100.00;101092.22;5049673;28;20149;-52
2023/10/03 09:57:54;;;;;;;3.63;1.23;;;;;;;17.34;100.00;101110.97;5051350;28;20041;-56
2023/10/03 10:00:39;;;;;;;;;;;;;;;17.33;100.00;101133.19;5052114;28;20037;-51
2023/10/03 10:03:13;;;;;;;6.22;1.45;;;;;;;17.19;100.00;101133.56;5048264;28;20542;-52
2023/10/03 10:05:53;;;;;;;5.80;1.10;;;;;;;17.18;100.00;101114.16;5048741;28;20103;-53
2023/10/03 10:08:32;;;;;;;2.75;1.08;;;;;;;17.12;100.00;101090.75;5048397;28;20099;-53
2023/10/03 10:11:09;;;;;;;3.72;1.60;;;;;;;17.11;100.00;101130.75;5047184;28;20150;-52
2023/10/03 10:14:02;;;;;;;6.10;1.40;;;;;;;17.05;100.00;101134.81;5048027;28;20045;-52
2023/10/03 10:16:31;;;;;;;8.43;1.70;;;;;;;16.99;100.00;101146.81;5050290;28;20131;-55
2023/10/03 10:19:00;;;;;;;5.28;1.30;;;;;;;16.92;100.00;101152.78;5080998;28;20044;-55
2023/10/03 10:21:32;;;;;;;6.28;0.98;;;;;;;16.72;100.00;101156.16;5048090;28;20074;-53
2023/10/03 10:24:25;;;;;;;6.13;1.15;;;;;;;16.61;100.00;101153.59;5048414;28;20045;-52
2023/10/03 10:26:53;;;;;;;;;;;;;;;16.63;100.00;101162.25;5048341;28;20048;-50
2023/10/03 10:29:24;;;;;;;5.97;1.33;;;;;;;16.75;100.00;101155.06;5052237;28;19932;-51
2023/10/03 10:31:58;;;;;;;5.95;1.23;;;;;;;16.82;100.00;101166.00;5051190;28;20045;-52
2023/10/03 10:34:40;;;;;;;2.65;1.20;;;;;;;16.79;100.00;101172.41;5053921;28;20575;-54
2023/10/03 10:37:11;;;;;;;3.72;1.02;;;;;;;16.85;100.00;101179.00;5055165;28;20049;-52
2023/10/03 10:40:21;;;;;;;4.10;1.10;;;;;;;16.89;100.00;101183.13;5052720;28;20119;-52
2023/10/03 10:43:01;;;;;;;3.33;1.45;;;;;;;16.70;100.00;101202.41;5051988;28;20162;-54
2023/10/03 10:45:37;;;;;;;5.00;1.27;;;;;;;16.53;100.00;101196.72;5050696;28;20072;-53
2023/10/03 10:48:07;;;;;;;6.50;1.23;;;;;;;16.69;100.00;101200.75;5052105;28;20376;-53
2023/10/03 10:51:13;;;;;;;4.40;1.42;;;;;;;16.76;100.00;101203.72;5054756;28;20524;-53
2023/10/03 10:53:43;;;;;;;4.57;1.27;;;;;;;16.87;100.00;101211.59;5030544;28;20108;-52
2023/10/03 10:56:13;;;;;;;4.38;1.10;;;;;;;16.78;100.00;101207.91;5046829;28;20056;-53
2023/10/03 10:58:51;;;;;;;2.63;0.98;;;;;;;16.64;100.00;101217.06;5054024;28;20037;-53
2023/10/03 11:01:20;;;;;;;4.97;1.15;;;;;;;16.53;100.00;101217.97;5051797;28;20495;-53
2023/10/03 11:03:49;;;;;;;3.35;0.93;;;;;;;16.54;100.00;101230.28;5052890;28;20131;-51
2023/10/03 11:06:20;;;;;;;4.55;1.00;;;;;;;16.45;100.00;101238.19;5054860;28;20064;-53
2023/10/03 11:08:49;;;;;;;5.07;0.95;;;;;;;16.43;100.00;101238.31;5054590;28;20484;-51
2023/10/03 11:11:19;;;;;;;3.17;0.95;;;;;;;16.37;100.00;101237.03;5050029;28;20049;-51
2023/10/03 11:13:49;;;;;;;3.58;0.80;;;;;;;16.40;100.00;101238.53;5051987;28;20160;-52
2023/10/03 11:16:22;;;;;;;5.55;0.80;;;;;;;16.42;100.00;101241.94;5054246;28;20144;-52
2023/10/03 11:18:51;;;;;;;4.10;0.93;;;;;;;16.54;100.00;101243.56;5053969;28;20059;-54
2023/10/03 11:21:22;;;;;;;3.90;0.80;;;;;;;16.54;100.00;101242.72;5051270;28;20057;-53
2023/10/03 11:24:24;;;;;;;5.93;1.05;;;;;;;16.60;100.00;101242.19;5051567;28;20464;-54
2023/10/03 11:26:58;;;;;;;4.10;0.90;;;;;;;16.43;100.00;101237.44;5029840;28;20052;-54